createdAt,value
2018-10-18T00:00:33.913Z,86.80
2018-10-18T00:03:05.440Z,87.20
2018-10-18T00:05:33.717Z,87.69
2018-10-18T00:08:01.952Z,88.13
2018-10-18T00:10:30.209Z,88.71
2018-10-18T00:12:58.422Z,88.15
2018-10-18T00:15:26.777Z,88.49
2018-10-18T00:17:55.010Z,88.22
2018-10-18T00:20:23.234Z,89.05
2018-10-18T00:22:51.539Z,89.61
2018-10-18T00:25:19.781Z,89.63
2018-10-18T00:27:48.037Z,90.18
2018-10-18T00:30:16.467Z,90.29
2018-10-18T00:32:45.205Z,90.44
2018-10-18T00:35:13.716Z,90.71
2018-10-18T00:37:41.972Z,90.28
2018-10-18T00:40:11.689Z,91.19
2018-10-18T00:42:39.985Z,91.48
2018-10-18T00:45:09.158Z,91.58
2018-10-18T00:47:37.420Z,91.45
2018-10-18T00:50:06.869Z,91.13
2018-10-18T00:52:35.038Z,91.40
2018-10-18T00:55:03.287Z,91.70
2018-10-18T00:57:31.597Z,91.40
2018-10-18T00:59:59.850Z,91.45
2018-10-18T01:02:28.073Z,90.88
2018-10-18T01:04:56.287Z,91.45
2018-10-18T01:07:24.659Z,91.65
2018-10-18T01:09:52.915Z,91.09
2018-10-18T01:12:21.263Z,91.37
2018-10-18T01:14:49.410Z,91.51
2018-10-18T01:17:17.650Z,91.23
2018-10-18T01:19:45.906Z,91.17
2018-10-18T01:22:14.152Z,91.16
2018-10-18T01:24:42.389Z,91.41
2018-10-18T01:27:10.666Z,91.13
2018-10-18T01:29:38.957Z,91.28
2018-10-18T01:32:07.507Z,90.37
2018-10-18T01:34:35.717Z,91.52
2018-10-18T01:37:03.993Z,91.04
2018-10-18T01:39:32.307Z,91.33
2018-10-18T01:42:00.607Z,91.51
2018-10-18T01:44:28.828Z,91.82
2018-10-18T01:46:57.065Z,91.61
2018-10-18T01:49:25.335Z,91.65
2018-10-18T01:51:53.561Z,91.25
2018-10-18T01:54:21.798Z,91.40
2018-10-18T01:56:50.094Z,91.28
2018-10-18T01:59:18.322Z,91.38
2018-10-18T02:01:46.562Z,91.66
2018-10-18T02:04:14.877Z,91.27
2018-10-18T02:06:43.093Z,92.03
2018-10-18T02:09:12.280Z,91.69
2018-10-18T02:11:41.057Z,91.93
2018-10-18T02:14:09.342Z,91.55
2018-10-18T02:16:37.561Z,92.07
2018-10-18T02:19:06.269Z,91.28
2018-10-18T02:21:34.482Z,92.08
2018-10-18T02:24:02.786Z,92.14
2018-10-18T02:26:31.033Z,91.96
2018-10-18T02:28:59.250Z,91.61
2018-10-18T02:31:27.498Z,91.79
2018-10-18T02:33:55.728Z,90.98
2018-10-18T02:36:24.074Z,91.38
2018-10-18T02:38:52.282Z,91.21
2018-10-18T02:41:20.618Z,91.43
2018-10-18T02:43:48.813Z,91.34
2018-10-18T02:46:17.054Z,91.06
2018-10-18T02:48:45.317Z,91.46
2018-10-18T02:51:13.540Z,91.62
2018-10-18T02:53:41.806Z,90.95
2018-10-18T02:56:10.045Z,90.63
2018-10-18T02:58:38.360Z,91.26
2018-10-18T03:01:06.625Z,91.33
2018-10-18T03:03:34.849Z,90.39
2018-10-18T03:06:03.097Z,90.38
2018-10-18T03:08:31.336Z,90.77
2018-10-18T03:10:59.606Z,90.54
2018-10-18T03:13:27.890Z,90.18
2018-10-18T03:15:56.193Z,89.75
2018-10-18T03:18:24.397Z,89.35
2018-10-18T03:20:52.665Z,89.38
2018-10-18T03:23:20.929Z,89.72
2018-10-18T03:25:49.150Z,89.00
2018-10-18T03:28:17.476Z,88.79
2018-10-18T03:30:45.821Z,88.73
2018-10-18T03:33:14.094Z,88.87
2018-10-18T03:35:42.353Z,89.40
2018-10-18T03:38:10.595Z,88.87
2018-10-18T03:40:38.866Z,89.01
2018-10-18T03:43:07.121Z,88.61
2018-10-18T03:45:35.401Z,88.94
2018-10-18T03:48:03.728Z,89.09
2018-10-18T03:50:31.894Z,88.48
2018-10-18T03:53:00.146Z,88.93
2018-10-18T03:55:28.368Z,88.78
2018-10-18T03:57:56.632Z,88.99
2018-10-18T04:00:24.860Z,89.38
2018-10-18T04:02:53.085Z,88.95
2018-10-18T04:05:21.366Z,88.35
2018-10-18T04:07:49.610Z,89.04
2018-10-18T04:10:17.925Z,88.62
2018-10-18T04:12:46.198Z,88.94
2018-10-18T04:15:14.409Z,88.34
2018-10-18T04:17:42.674Z,88.89
2018-10-18T04:20:10.878Z,89.06
2018-10-18T04:22:39.105Z,88.76
2018-10-18T04:25:07.750Z,88.81
2018-10-18T04:27:35.993Z,88.92
2018-10-18T04:30:04.390Z,88.87
2018-10-18T04:32:32.564Z,88.64
2018-10-18T04:35:00.817Z,88.07
2018-10-18T04:37:35.833Z,88.35
2018-10-18T04:40:04.001Z,88.37
2018-10-18T04:42:32.243Z,88.66
2018-10-18T04:45:00.489Z,88.22
2018-10-18T04:47:28.850Z,88.63
2018-10-18T04:49:57.023Z,88.39
2018-10-18T04:52:25.273Z,88.42
2018-10-18T04:54:53.508Z,88.91
2018-10-18T04:57:22.206Z,88.22
2018-10-18T04:59:50.409Z,88.75
2018-10-18T05:02:18.657Z,88.33
2018-10-18T05:04:58.414Z,88.67
2018-10-18T05:07:26.957Z,88.76
2018-10-18T05:09:55.233Z,88.35
2018-10-18T05:12:23.456Z,88.24
2018-10-18T05:14:51.737Z,88.22
2018-10-18T05:17:20.023Z,88.87
2018-10-18T05:19:48.287Z,88.74
2018-10-18T05:22:16.797Z,89.00
2018-10-18T05:24:45.062Z,89.25
2018-10-18T05:27:13.290Z,89.15
2018-10-18T05:29:41.570Z,89.26
2018-10-18T05:32:09.817Z,89.07
2018-10-18T05:34:38.078Z,88.58
2018-10-18T05:37:06.499Z,89.33
2018-10-18T05:39:34.697Z,89.40
2018-10-18T05:42:02.977Z,88.89
2018-10-18T05:44:31.240Z,89.24
2018-10-18T05:46:59.599Z,88.50
2018-10-18T05:49:27.841Z,89.33
2018-10-18T05:51:56.097Z,88.56
2018-10-18T05:54:24.371Z,88.44
2018-10-18T05:56:52.657Z,88.40
2018-10-18T05:59:20.953Z,88.88
2018-10-18T06:01:49.195Z,87.96
2018-10-18T06:04:17.441Z,88.53
2018-10-18T06:06:45.685Z,87.80
2018-10-18T06:09:23.021Z,87.87
2018-10-18T06:11:51.370Z,88.16
2018-10-18T06:14:19.645Z,87.85
2018-10-18T06:16:47.942Z,87.75
2018-10-18T06:19:16.316Z,88.23
2018-10-18T06:21:44.581Z,88.17
2018-10-18T06:24:12.909Z,87.78
2018-10-18T06:26:41.197Z,88.46
2018-10-18T06:29:09.461Z,87.90
2018-10-18T06:31:37.811Z,88.59
2018-10-18T06:34:06.289Z,88.50
2018-10-18T06:36:34.581Z,88.21
2018-10-18T06:39:02.897Z,87.23
2018-10-18T06:41:31.184Z,87.04
2018-10-18T06:43:59.432Z,87.71
2018-10-18T06:46:27.689Z,86.98
2018-10-18T06:48:56.048Z,87.18
2018-10-18T06:51:24.253Z,87.37
2018-10-18T06:53:52.583Z,87.19
2018-10-18T06:56:20.863Z,86.99
2018-10-18T06:58:49.173Z,86.11
2018-10-18T07:01:17.434Z,86.58
2018-10-18T07:03:45.692Z,86.39
2018-10-18T07:06:14.040Z,87.02
2018-10-18T07:08:42.276Z,86.87
2018-10-18T07:11:10.542Z,86.68
2018-10-18T07:13:38.777Z,85.78
2018-10-18T07:16:07.040Z,86.22
2018-10-18T07:18:35.329Z,86.00
2018-10-18T07:21:03.575Z,84.95
2018-10-18T07:23:31.832Z,85.71
2018-10-18T07:26:00.097Z,85.05
2018-10-18T07:28:28.378Z,84.83
2018-10-18T07:30:56.679Z,84.96
2018-10-18T07:33:24.938Z,85.52
2018-10-18T07:35:53.248Z,85.36
2018-10-18T07:38:21.494Z,85.46
2018-10-18T07:40:49.763Z,85.55
2018-10-18T07:43:18.113Z,85.37
2018-10-18T07:45:46.365Z,85.18
2018-10-18T07:48:14.713Z,85.53
2018-10-18T07:50:42.980Z,84.96
2018-10-18T07:54:52.019Z,85.34
2018-10-18T07:57:20.336Z,84.78
2018-10-18T07:59:48.750Z,85.47
2018-10-18T08:02:17.046Z,85.19
2018-10-18T08:04:45.370Z,84.76
2018-10-18T08:07:13.768Z,85.46
2018-10-18T08:09:42.034Z,84.28
2018-10-18T08:12:10.356Z,84.28
2018-10-18T08:14:38.687Z,84.70
2018-10-18T08:17:07.038Z,83.68
2018-10-18T08:19:35.294Z,84.66
2018-10-18T08:22:03.610Z,83.52
2018-10-18T08:24:31.916Z,83.25
2018-10-18T08:27:00.206Z,82.71
2018-10-18T08:29:28.526Z,81.76
2018-10-18T08:31:56.845Z,82.06
2018-10-18T08:34:25.200Z,81.85
2018-10-18T08:36:53.621Z,81.64
2018-10-18T08:39:21.953Z,81.70
2018-10-18T08:41:50.256Z,81.42
2018-10-18T08:44:18.557Z,80.42
2018-10-18T08:46:46.840Z,79.86
2018-10-18T08:49:15.205Z,79.24
2018-10-18T08:51:43.480Z,79.69
2018-10-18T08:54:11.809Z,79.17
2018-10-18T08:56:40.140Z,78.49
2018-10-18T08:59:08.519Z,79.45
2018-10-18T09:01:36.853Z,79.20
2018-10-18T09:04:05.409Z,79.04
2018-10-18T09:06:33.729Z,79.70
2018-10-18T09:09:02.050Z,79.77
2018-10-18T09:11:30.369Z,79.24
2018-10-18T09:13:58.718Z,79.50
2018-10-18T09:16:27.003Z,78.30
2018-10-18T09:18:55.366Z,78.27
2018-10-18T09:21:23.684Z,78.00
2018-10-18T09:23:52.039Z,77.66
2018-10-18T09:26:20.315Z,78.20
2018-10-18T09:28:48.784Z,78.89
2018-10-18T09:31:17.179Z,78.19
2018-10-18T09:33:45.412Z,77.89
2018-10-18T09:36:13.718Z,77.66
2018-10-18T09:38:42.020Z,76.72
2018-10-18T09:41:10.319Z,76.98
2018-10-18T09:43:38.625Z,76.18
2018-10-18T09:46:07.072Z,76.12
2018-10-18T09:48:35.678Z,75.83
2018-10-18T09:51:03.997Z,75.99
2018-10-18T09:53:32.366Z,76.89
2018-10-18T09:56:00.767Z,77.32
2018-10-18T09:58:29.159Z,76.66
2018-10-18T10:01:02.789Z,76.77
2018-10-18T10:03:31.100Z,76.03
2018-10-18T10:05:59.426Z,75.24
2018-10-18T10:08:27.731Z,73.99
2018-10-18T10:10:56.038Z,74.19
2018-10-18T10:13:24.478Z,73.23
2018-10-18T10:15:52.621Z,73.42
2018-10-18T10:18:21.004Z,73.32
2018-10-18T10:20:49.263Z,72.67
2018-10-18T10:23:17.575Z,71.06
2018-10-18T10:25:45.873Z,71.15
2018-10-18T10:28:14.181Z,70.67
2018-10-18T10:30:42.463Z,70.67
2018-10-18T10:33:10.901Z,69.87
2018-10-18T10:35:39.144Z,70.32
2018-10-18T10:38:07.440Z,69.91
2018-10-18T10:40:35.726Z,70.14
2018-10-18T10:43:04.514Z,70.87
2018-10-18T10:45:32.817Z,70.81
2018-10-18T10:48:01.190Z,69.90
2018-10-18T10:50:29.471Z,70.20
2018-10-18T10:52:57.817Z,70.25
2018-10-18T10:55:26.127Z,69.65
2018-10-18T10:57:54.679Z,68.62
2018-10-18T11:00:37.380Z,67.99
2018-10-18T11:03:05.763Z,67.92
2018-10-18T11:05:34.064Z,68.53
2018-10-18T11:08:02.414Z,68.26
2018-10-18T11:10:30.684Z,68.75
2018-10-18T11:12:58.970Z,68.96
2018-10-18T11:15:27.264Z,69.89
2018-10-18T11:17:55.567Z,69.68
2018-10-18T11:20:23.899Z,70.19
2018-10-18T11:22:52.231Z,69.15
2018-10-18T11:25:20.516Z,69.29
2018-10-18T11:27:48.821Z,68.90
2018-10-18T11:30:17.129Z,68.71
2018-10-18T11:32:45.455Z,66.87
2018-10-18T11:35:13.772Z,66.46
2018-10-18T11:37:42.057Z,66.64
2018-10-18T11:40:10.360Z,65.58
2018-10-18T11:42:38.708Z,65.77
2018-10-18T11:45:07.032Z,65.97
2018-10-18T11:47:35.383Z,65.61
2018-10-18T11:50:03.759Z,65.61
2018-10-18T11:52:32.022Z,66.45
2018-10-18T11:55:00.328Z,66.47
2018-10-18T11:57:28.628Z,66.57
2018-10-18T11:59:56.920Z,66.23
2018-10-18T12:02:25.300Z,65.57
2018-10-18T12:04:53.594Z,66.05
2018-10-18T12:07:21.910Z,65.20
2018-10-18T12:09:50.234Z,64.58
2018-10-18T12:12:18.540Z,64.69
2018-10-18T12:14:46.845Z,64.03
2018-10-18T12:17:15.210Z,65.01
2018-10-18T12:19:43.476Z,64.89
2018-10-18T12:22:11.801Z,66.05
2018-10-18T12:24:40.287Z,66.75
2018-10-18T12:27:08.572Z,68.43
2018-10-18T12:29:36.869Z,69.20
2018-10-18T12:32:05.504Z,69.77
2018-10-18T12:34:33.766Z,69.55
2018-10-18T12:37:02.192Z,70.47
2018-10-18T12:39:30.593Z,70.96
2018-10-18T12:41:58.835Z,71.07
2018-10-18T12:44:31.456Z,71.71
2018-10-18T12:46:59.791Z,71.12
2018-10-18T12:49:28.103Z,71.81
2018-10-18T12:51:56.422Z,71.72
2018-10-18T12:54:24.764Z,72.41
2018-10-18T12:56:53.143Z,71.64
2018-10-18T12:59:21.431Z,71.18
2018-10-18T13:01:49.795Z,71.91
2018-10-18T13:04:18.094Z,71.30
2018-10-18T13:06:46.578Z,71.17
2018-10-18T13:09:14.887Z,70.93
2018-10-18T13:11:43.258Z,71.72
2018-10-18T13:14:11.694Z,71.59
2018-10-18T13:16:39.890Z,71.68
2018-10-18T13:19:08.742Z,71.20
2018-10-18T13:21:37.087Z,71.40
2018-10-18T13:24:05.819Z,72.15
2018-10-18T13:26:34.436Z,72.21
2018-10-18T13:29:02.743Z,73.21
2018-10-18T13:31:31.114Z,73.67
2018-10-18T13:33:59.475Z,74.41
2018-10-18T13:36:27.780Z,73.92
2018-10-18T13:38:56.128Z,74.13
2018-10-18T13:41:24.532Z,73.81
2018-10-18T13:43:52.871Z,74.72
2018-10-18T13:46:21.234Z,74.94
2018-10-18T13:48:49.572Z,75.15
2018-10-18T13:51:18.045Z,75.55
2018-10-18T13:53:46.348Z,76.21
2018-10-18T13:56:14.801Z,76.45
2018-10-18T13:58:43.598Z,75.71
2018-10-18T14:01:11.942Z,75.94
2018-10-18T14:03:40.231Z,76.31
2018-10-18T14:06:08.543Z,76.12
2018-10-18T14:08:36.949Z,75.85
2018-10-18T14:11:05.431Z,76.08
2018-10-18T14:13:33.747Z,75.12
2018-10-18T14:16:02.078Z,74.85
2018-10-18T14:18:30.363Z,74.85
2018-10-18T14:20:58.740Z,74.60
2018-10-18T14:23:27.123Z,74.04
2018-10-18T14:25:55.494Z,75.26
2018-10-18T14:28:23.784Z,75.30
2018-10-18T14:30:52.177Z,75.92
2018-10-18T14:33:20.491Z,77.17
2018-10-18T14:35:48.839Z,77.14
2018-10-18T14:38:17.222Z,77.74
2018-10-18T14:40:45.514Z,77.89
2018-10-18T14:43:14.124Z,78.72
2018-10-18T14:45:42.412Z,78.65
2018-10-18T14:48:10.752Z,79.48
2018-10-18T14:50:39.144Z,78.56
2018-10-18T14:53:07.480Z,79.47
2018-10-18T14:55:35.862Z,79.29
2018-10-18T14:58:04.164Z,79.74
2018-10-18T15:00:32.476Z,79.64
2018-10-18T15:03:00.779Z,79.71
2018-10-18T15:05:29.060Z,80.38
2018-10-18T15:07:57.398Z,79.83
2018-10-18T15:10:25.915Z,80.12
2018-10-18T15:12:54.236Z,80.63
2018-10-18T15:15:22.532Z,80.16
2018-10-18T15:17:50.895Z,80.21
2018-10-18T15:20:19.203Z,80.70
2018-10-18T15:22:47.503Z,80.46
2018-10-18T15:25:15.877Z,80.19
2018-10-18T15:27:44.357Z,81.10
2018-10-18T15:30:13.304Z,81.44
2018-10-18T15:32:41.585Z,81.25
2018-10-18T15:35:11.086Z,80.54
2018-10-18T15:37:39.511Z,80.78
2018-10-18T15:40:08.266Z,81.18
2018-10-18T15:42:36.905Z,81.29
2018-10-18T15:45:05.872Z,80.81
2018-10-18T15:47:34.142Z,81.03
2018-10-18T15:50:02.479Z,82.14
2018-10-18T15:52:30.810Z,82.30
2018-10-18T15:54:59.120Z,82.24
2018-10-18T15:57:27.438Z,83.29
2018-10-18T15:59:55.842Z,82.70
2018-10-18T16:02:24.184Z,83.59
2018-10-18T16:04:52.498Z,84.56
2018-10-18T16:07:20.856Z,84.89
2018-10-18T16:09:49.176Z,84.78
2018-10-18T16:12:17.507Z,85.35
2018-10-18T16:14:45.855Z,86.19
2018-10-18T16:17:14.229Z,85.74
2018-10-18T16:19:42.466Z,85.94
2018-10-18T16:22:10.755Z,86.31
2018-10-18T16:24:39.097Z,86.41
2018-10-18T16:27:07.444Z,87.32
2018-10-18T16:29:35.771Z,88.07
2018-10-18T16:32:04.229Z,88.19
2018-10-18T16:34:32.487Z,88.69
2018-10-18T16:37:00.813Z,89.21
2018-10-18T16:39:29.189Z,89.19
2018-10-18T16:41:57.563Z,89.43
2018-10-18T16:44:25.846Z,89.56
2018-10-18T16:46:54.155Z,89.10
2018-10-18T16:49:22.456Z,89.21
2018-10-18T16:51:50.892Z,89.65
2018-10-18T16:54:19.293Z,89.49
2018-10-18T16:56:47.687Z,89.86
2018-10-18T16:59:16.030Z,89.20
2018-10-18T17:01:44.340Z,89.00
2018-10-18T17:04:12.689Z,88.16
2018-10-18T17:06:40.908Z,88.03
2018-10-18T17:09:10.181Z,88.03
2018-10-18T17:11:38.761Z,87.85
2018-10-18T17:14:07.151Z,87.55
2018-10-18T17:16:35.498Z,87.99
2018-10-18T17:19:03.788Z,87.04
2018-10-18T17:21:32.072Z,87.10
2018-10-18T17:24:00.394Z,87.30
2018-10-18T17:26:28.772Z,87.38
2018-10-18T17:28:57.031Z,87.17
2018-10-18T17:31:25.342Z,86.82
2018-10-18T17:33:53.670Z,86.52
2018-10-18T17:36:21.955Z,87.04
2018-10-18T17:38:50.251Z,87.05
2018-10-18T17:41:18.559Z,86.63
2018-10-18T17:43:46.842Z,86.34
2018-10-18T17:46:15.239Z,86.65
2018-10-18T17:48:43.568Z,86.50
2018-10-18T17:51:11.843Z,86.44
2018-10-18T17:53:40.148Z,86.74
2018-10-18T17:56:08.556Z,86.34
2018-10-18T17:58:36.862Z,86.49
2018-10-18T18:01:05.479Z,86.71
2018-10-18T18:03:33.924Z,86.65
2018-10-18T18:06:02.324Z,86.43
2018-10-18T18:08:30.563Z,86.50
2018-10-18T18:10:58.886Z,86.36
2018-10-18T18:13:27.194Z,86.93
2018-10-18T18:15:55.524Z,87.05
2018-10-18T18:18:23.852Z,87.03
2018-10-18T18:20:52.145Z,86.85
2018-10-18T18:23:20.464Z,86.87
2018-10-18T18:25:48.774Z,86.99
2018-10-18T18:28:17.088Z,87.39
2018-10-18T18:30:45.391Z,87.46
2018-10-18T18:33:13.657Z,87.50
2018-10-18T18:35:41.931Z,87.04
2018-10-18T18:38:10.239Z,87.22
2018-10-18T18:40:38.519Z,87.35
2018-10-18T18:43:06.872Z,87.89
2018-10-18T18:45:36.203Z,87.48
2018-10-18T18:48:05.244Z,87.26
2018-10-18T18:50:33.558Z,86.65
2018-10-18T18:53:02.302Z,87.18
2018-10-18T18:55:30.517Z,87.01
2018-10-18T18:57:58.951Z,86.96
2018-10-18T19:00:27.267Z,86.24
2018-10-18T19:02:55.558Z,86.85
2018-10-18T19:05:23.894Z,86.85
2018-10-18T19:07:52.201Z,86.66
2018-10-18T19:10:20.544Z,86.86
2018-10-18T19:12:48.827Z,87.10
2018-10-18T19:15:17.140Z,87.12
2018-10-18T19:17:45.422Z,87.73
2018-10-18T19:20:13.691Z,87.72
2018-10-18T19:22:42.094Z,88.02
2018-10-18T19:25:10.284Z,88.07
2018-10-18T19:27:39.157Z,88.88
2018-10-18T19:30:08.982Z,88.46
2018-10-18T19:32:37.283Z,88.44
2018-10-18T19:35:05.615Z,88.67
2018-10-18T19:37:33.903Z,88.83
2018-10-18T19:40:02.236Z,88.17
2018-10-18T19:42:30.556Z,88.06
2018-10-18T19:44:58.857Z,87.87
2018-10-18T19:47:27.164Z,87.83
2018-10-18T19:49:55.487Z,86.87
2018-10-18T19:52:24.314Z,87.23
2018-10-18T19:54:52.443Z,87.32
2018-10-18T19:57:20.743Z,86.50
2018-10-18T19:59:49.030Z,87.11
2018-10-18T20:02:17.304Z,86.41
2018-10-18T20:04:45.599Z,87.03
2018-10-18T20:07:13.919Z,86.92
2018-10-18T20:09:42.295Z,86.86
2018-10-18T20:12:10.610Z,86.69
2018-10-18T20:14:38.852Z,86.51
2018-10-18T20:17:07.595Z,86.44
2018-10-18T20:19:35.891Z,86.62
2018-10-18T20:22:05.635Z,85.99
2018-10-18T20:24:33.983Z,86.23
2018-10-18T20:27:02.579Z,86.49
2018-10-18T20:29:30.871Z,86.08
2018-10-18T20:31:59.160Z,85.72
2018-10-18T20:34:27.457Z,85.65
2018-10-18T20:36:55.820Z,85.93
2018-10-18T20:39:24.103Z,85.57
2018-10-18T20:41:52.419Z,85.73
2018-10-18T20:44:20.711Z,85.24
2018-10-18T20:46:49.100Z,84.64
2018-10-18T20:49:17.323Z,85.32
2018-10-18T20:51:45.654Z,84.83
2018-10-18T20:54:14.015Z,84.10
2018-10-18T20:56:42.223Z,84.70
2018-10-18T20:59:10.503Z,84.84
2018-10-18T21:01:38.806Z,84.29
2018-10-18T21:04:07.066Z,83.86
2018-10-18T21:06:35.527Z,84.05
2018-10-18T21:09:03.801Z,84.48
2018-10-18T21:11:32.066Z,83.95
2018-10-18T21:14:00.353Z,83.67
2018-10-18T21:16:28.683Z,83.89
2018-10-18T21:18:56.962Z,84.22
2018-10-18T21:21:25.267Z,83.69
2018-10-18T21:23:53.818Z,83.79
2018-10-18T21:26:22.256Z,83.13
2018-10-18T21:28:50.554Z,83.01
2018-10-18T21:31:18.828Z,83.75
2018-10-18T21:33:47.141Z,83.60
2018-10-18T21:36:15.422Z,83.55
2018-10-18T21:38:43.683Z,83.15
2018-10-18T21:41:12.051Z,83.33
2018-10-18T21:43:40.264Z,83.19
2018-10-18T21:46:08.582Z,82.68
2018-10-18T21:48:37.158Z,82.21
2018-10-18T21:51:05.641Z,83.05
2018-10-18T21:53:33.899Z,82.41
2018-10-18T21:56:02.206Z,83.11
2018-10-18T21:58:30.495Z,82.28
2018-10-18T22:00:58.771Z,82.52
2018-10-18T22:03:27.091Z,83.35
2018-10-18T22:05:55.348Z,82.26
2018-10-18T22:08:23.735Z,82.62
2018-10-18T22:10:52.050Z,82.23
2018-10-18T22:13:20.345Z,82.62
2018-10-18T22:15:48.610Z,82.68
2018-10-18T22:18:16.978Z,82.48
2018-10-18T22:20:45.286Z,82.75
2018-10-18T22:23:13.618Z,82.35
2018-10-18T22:25:41.910Z,82.54
2018-10-18T22:28:10.177Z,82.69
2018-10-18T22:30:38.463Z,82.99
2018-10-18T22:33:06.819Z,82.73
2018-10-18T22:35:35.095Z,82.41
2018-10-18T22:38:03.420Z,82.79
2018-10-18T22:40:31.683Z,83.07
2018-10-18T22:42:59.979Z,82.63
2018-10-18T22:45:28.236Z,83.97
2018-10-18T22:47:56.515Z,83.76
2018-10-18T22:50:24.865Z,83.90
2018-10-18T22:52:53.239Z,83.21
2018-10-18T22:55:21.519Z,83.60
2018-10-18T22:57:49.814Z,84.08
2018-10-18T23:00:18.143Z,84.54
2018-10-18T23:02:46.439Z,84.17
2018-10-18T23:05:14.774Z,84.20
2018-10-18T23:07:42.995Z,84.85
2018-10-18T23:10:11.309Z,84.97
2018-10-18T23:12:39.583Z,84.69
2018-10-18T23:15:09.092Z,84.89
2018-10-18T23:17:37.406Z,84.20
2018-10-18T23:20:06.819Z,85.30
2018-10-18T23:22:35.106Z,85.46
2018-10-18T23:25:03.443Z,85.13
2018-10-18T23:27:32.821Z,85.67
2018-10-18T23:30:01.093Z,85.21
2018-10-18T23:32:30.427Z,86.18
2018-10-18T23:34:59.168Z,85.95
2018-10-18T23:37:27.488Z,86.15
2018-10-18T23:39:55.795Z,85.73
2018-10-18T23:42:24.086Z,85.37
2018-10-18T23:44:52.389Z,85.30
2018-10-18T23:47:20.727Z,85.28
2018-10-18T23:49:49.255Z,86.42
2018-10-18T23:52:17.543Z,85.76
2018-10-18T23:54:45.850Z,86.73
2018-10-18T23:57:14.240Z,86.58
2018-10-18T23:59:42.435Z,86.00
